createdAt,value
2022-07-31T00:01:38.210Z,2.35
2022-07-31T00:06:41.202Z,2.05
2022-07-31T00:11:43.683Z,2.17
2022-07-31T00:16:45.253Z,2.05
2022-07-31T00:21:46.999Z,2.00
2022-07-31T00:26:52.895Z,1.98
2022-07-31T00:31:54.562Z,2.00
2022-07-31T00:36:56.078Z,2.00
2022-07-31T00:41:57.641Z,1.65
2022-07-31T00:46:59.143Z,1.98
2022-07-31T00:52:03.538Z,1.75
2022-07-31T00:57:05.611Z,2.22
2022-07-31T01:02:08.346Z,2.25
2022-07-31T01:07:09.925Z,2.35
2022-07-31T01:12:36.019Z,2.88
2022-07-31T01:17:38.940Z,2.50
2022-07-31T01:23:22.266Z,2.45
2022-07-31T01:28:53.755Z,2.90
2022-07-31T01:34:05.739Z,2.70
2022-07-31T01:39:07.594Z,2.78
2022-07-31T01:44:14.050Z,2.97
2022-07-31T01:49:19.104Z,3.35
2022-07-31T01:54:22.945Z,3.38
2022-07-31T01:59:25.842Z,3.50
2022-07-31T02:04:29.533Z,3.80
2022-07-31T02:09:33.485Z,4.10
2022-07-31T02:14:35.920Z,3.60
2022-07-31T02:19:40.303Z,3.85
2022-07-31T02:24:59.588Z,4.10
2022-07-31T02:30:03.932Z,4.10
2022-07-31T02:35:07.826Z,3.95
2022-07-31T02:40:11.809Z,4.05
2022-07-31T02:45:14.029Z,3.95
2022-07-31T02:50:20.179Z,3.63
2022-07-31T02:55:22.912Z,3.60
2022-07-31T03:00:27.013Z,4.55
2022-07-31T03:05:31.793Z,4.13
2022-07-31T03:10:33.302Z,4.93
2022-07-31T03:15:36.504Z,4.13
2022-07-31T03:20:39.660Z,4.60
2022-07-31T03:25:42.320Z,4.68
2022-07-31T03:30:43.958Z,4.78
2022-07-31T03:35:45.462Z,5.32
2022-07-31T03:40:53.005Z,4.85
2022-07-31T03:45:55.080Z,5.35
2022-07-31T03:50:57.429Z,4.43
2022-07-31T03:56:00.256Z,4.03
2022-07-31T04:01:03.218Z,4.13
2022-07-31T04:06:07.831Z,4.32
2022-07-31T04:11:09.412Z,4.28
2022-07-31T04:16:11.013Z,4.00
2022-07-31T04:21:12.551Z,4.80
2022-07-31T04:26:14.285Z,4.78
2022-07-31T04:31:21.686Z,4.03
2022-07-31T04:36:29.668Z,4.25
2022-07-31T04:41:31.871Z,3.85
2022-07-31T04:46:33.367Z,4.07
2022-07-31T04:51:34.903Z,3.90
2022-07-31T04:56:37.660Z,4.20
2022-07-31T05:01:40.430Z,3.80
2022-07-31T05:06:44.899Z,3.72
2022-07-31T05:11:47.359Z,3.88
2022-07-31T05:16:49.576Z,3.85
2022-07-31T05:21:53.655Z,3.63
2022-07-31T05:27:05.683Z,3.58
2022-07-31T05:32:07.193Z,4.30
2022-07-31T05:37:08.736Z,4.32
2022-07-31T05:42:10.284Z,5.15
2022-07-31T05:47:11.842Z,4.75
2022-07-31T05:52:13.419Z,4.50
2022-07-31T05:57:33.083Z,5.03
2022-07-31T06:02:35.774Z,5.82
2022-07-31T06:07:37.312Z,5.93
2022-07-31T06:12:38.866Z,5.53
2022-07-31T06:17:44.568Z,5.80
2022-07-31T06:22:46.516Z,5.60
2022-07-31T06:27:53.763Z,5.43
2022-07-31T06:33:00.759Z,5.22
2022-07-31T06:38:09.982Z,5.53
2022-07-31T06:43:11.507Z,5.50
2022-07-31T06:48:14.461Z,5.82
2022-07-31T06:53:16.013Z,5.85
2022-07-31T06:58:17.646Z,6.97
2022-07-31T07:03:19.152Z,6.45
2022-07-31T07:08:20.684Z,6.88
2022-07-31T07:13:22.233Z,7.18
2022-07-31T07:18:25.458Z,7.40
2022-07-31T07:23:26.986Z,7.40
2022-07-31T07:28:31.015Z,8.48
2022-07-31T07:33:39.518Z,8.60
2022-07-31T07:38:43.433Z,8.68
2022-07-31T07:43:45.736Z,8.18
2022-07-31T07:48:53.200Z,9.18
2022-07-31T07:53:54.768Z,8.73
2022-07-31T07:58:56.376Z,9.10
2022-07-31T08:03:58.230Z,10.38
2022-07-31T08:08:59.765Z,10.65
2022-07-31T08:14:01.335Z,11.73
2022-07-31T08:19:03.237Z,11.15
2022-07-31T08:24:05.495Z,11.35
2022-07-31T08:29:07.660Z,11.63
2022-07-31T08:34:09.624Z,12.50
2022-07-31T08:39:21.282Z,12.70
2022-07-31T08:44:25.822Z,13.52
2022-07-31T08:49:36.952Z,14.15
2022-07-31T08:54:46.383Z,13.27
2022-07-31T08:59:52.365Z,13.15
2022-07-31T09:04:54.557Z,14.70
2022-07-31T09:09:56.161Z,15.23
2022-07-31T09:14:58.212Z,14.80
2022-07-31T09:20:00.262Z,16.85
2022-07-31T09:25:09.913Z,18.73
2022-07-31T09:30:11.842Z,18.75
2022-07-31T09:35:15.438Z,20.42
2022-07-31T09:40:21.102Z,22.77
2022-07-31T09:45:25.761Z,25.02
2022-07-31T09:50:27.426Z,26.35
2022-07-31T09:55:29.403Z,27.17
2022-07-31T10:00:31.148Z,26.63
2022-07-31T10:05:34.158Z,28.80
2022-07-31T10:10:36.288Z,31.20
2022-07-31T10:15:42.372Z,31.15
2022-07-31T10:20:53.071Z,32.00
2022-07-31T10:25:59.708Z,29.77
2022-07-31T10:31:04.005Z,28.63
2022-07-31T10:36:11.411Z,20.67
2022-07-31T10:41:41.787Z,18.65
2022-07-31T10:46:44.311Z,14.55
2022-07-31T10:51:50.194Z,9.35
2022-07-31T10:56:51.995Z,9.40
2022-07-31T11:01:56.708Z,8.10
2022-07-31T11:06:59.220Z,5.63
2022-07-31T11:12:01.651Z,6.50
2022-07-31T11:17:04.697Z,7.68
2022-07-31T11:22:31.208Z,7.30
2022-07-31T11:27:34.889Z,7.90
2022-07-31T11:32:36.453Z,7.70
2022-07-31T11:37:56.661Z,8.07
2022-07-31T11:48:25.442Z,7.70
2022-07-31T11:53:28.918Z,7.53
2022-07-31T11:58:30.601Z,7.15
2022-07-31T12:03:42.495Z,6.32
2022-07-31T12:08:48.501Z,5.75
2022-07-31T12:13:50.521Z,6.65
2022-07-31T12:18:56.284Z,6.72
2022-07-31T12:23:58.656Z,6.78
2022-07-31T12:29:07.628Z,7.53
2022-07-31T12:34:09.271Z,7.70
2022-07-31T12:39:11.689Z,6.78
2022-07-31T12:44:14.551Z,8.02
2022-07-31T12:49:16.951Z,6.50
2022-07-31T12:54:22.005Z,6.57
2022-07-31T12:59:23.778Z,6.57
2022-07-31T13:04:25.427Z,5.10
2022-07-31T13:09:27.714Z,5.38
2022-07-31T13:14:29.315Z,6.03
2022-07-31T13:19:33.792Z,6.30
2022-07-31T13:24:35.784Z,7.25
2022-07-31T13:29:39.572Z,7.45
2022-07-31T13:34:41.152Z,7.32
2022-07-31T13:39:42.707Z,7.53
2022-07-31T13:44:47.361Z,6.53
2022-07-31T13:49:55.011Z,6.50
2022-07-31T13:54:59.569Z,4.93
2022-07-31T14:00:01.183Z,4.57
2022-07-31T14:05:02.795Z,4.10
2022-07-31T14:10:08.595Z,3.80
2022-07-31T14:15:10.820Z,3.97
2022-07-31T14:20:13.334Z,4.00
2022-07-31T14:25:17.784Z,3.60
2022-07-31T14:30:20.284Z,3.50
2022-07-31T14:35:21.850Z,2.97
2022-07-31T14:40:23.521Z,3.10
2022-07-31T14:45:25.239Z,2.13
2022-07-31T14:50:26.993Z,2.10
2022-07-31T14:55:31.711Z,1.75
2022-07-31T15:00:45.206Z,2.17
2022-07-31T15:06:41.287Z,2.60
2022-07-31T15:11:10.605Z,2.85
2022-07-31T15:16:14.078Z,3.20
2022-07-31T15:21:18.407Z,3.92
2022-07-31T15:26:20.028Z,4.68
2022-07-31T15:31:21.651Z,4.65
2022-07-31T15:36:27.775Z,4.15
2022-07-31T15:41:31.692Z,4.20
2022-07-31T15:46:33.519Z,5.30
2022-07-31T15:51:35.099Z,5.35
2022-07-31T15:56:36.671Z,4.20
2022-07-31T16:01:38.694Z,4.63
2022-07-31T16:06:40.389Z,5.78
2022-07-31T16:12:02.879Z,5.90
2022-07-31T16:17:04.669Z,5.95
2022-07-31T16:22:08.973Z,6.25
2022-07-31T16:27:10.511Z,7.35
2022-07-31T16:32:12.102Z,5.72
2022-07-31T16:37:13.633Z,6.15
2022-07-31T16:42:15.878Z,5.90
2022-07-31T16:47:17.410Z,6.00
2022-07-31T16:52:38.992Z,5.50
2022-07-31T16:57:40.695Z,5.40
2022-07-31T17:02:44.727Z,5.22
2022-07-31T17:07:46.324Z,5.80
2022-07-31T17:12:51.774Z,4.97
2022-07-31T17:17:53.305Z,3.65
2022-07-31T17:22:54.903Z,3.88
2022-07-31T17:27:57.004Z,4.35
2022-07-31T17:32:58.508Z,4.47
2022-07-31T17:38:02.659Z,3.95
2022-07-31T17:43:04.326Z,3.97
2022-07-31T17:48:07.274Z,3.47
2022-07-31T17:53:08.871Z,4.25
2022-07-31T17:58:13.027Z,3.80
2022-07-31T18:03:14.601Z,3.38
2022-07-31T18:08:16.159Z,3.67
2022-07-31T18:13:17.703Z,3.80
2022-07-31T18:18:19.216Z,3.92
2022-07-31T18:23:23.028Z,4.25
2022-07-31T18:28:25.929Z,4.68
2022-07-31T18:33:27.703Z,5.40
2022-07-31T18:38:29.249Z,4.78
2022-07-31T18:43:31.372Z,4.80
2022-07-31T18:48:35.245Z,4.50
2022-07-31T18:53:38.882Z,4.82
2022-07-31T18:58:41.596Z,5.45
2022-07-31T19:03:43.111Z,5.72
2022-07-31T19:08:49.495Z,5.63
2022-07-31T19:13:51.173Z,7.05
2022-07-31T19:18:52.794Z,8.23
2022-07-31T19:23:54.308Z,8.68
2022-07-31T19:28:56.650Z,8.75
2022-07-31T19:33:58.319Z,9.98
2022-07-31T19:38:59.967Z,10.57
2022-07-31T19:44:01.648Z,10.48
2022-07-31T19:49:03.654Z,9.95
2022-07-31T19:54:05.325Z,9.18
2022-07-31T19:59:06.950Z,8.57
2022-07-31T20:04:13.610Z,8.70
2022-07-31T20:09:15.185Z,7.65
2022-07-31T20:14:16.800Z,8.00
2022-07-31T20:19:18.396Z,5.88
2022-07-31T20:24:22.330Z,4.70
2022-07-31T20:29:24.938Z,3.50
2022-07-31T20:34:26.729Z,3.70
2022-07-31T20:39:34.104Z,4.05
2022-07-31T20:44:35.884Z,3.67
2022-07-31T20:49:39.777Z,3.75
2022-07-31T20:54:41.358Z,3.42
2022-07-31T20:59:42.922Z,2.67
2022-07-31T21:04:44.637Z,3.42
2022-07-31T21:09:46.232Z,3.85
2022-07-31T21:14:47.879Z,4.90
2022-07-31T21:19:49.586Z,3.92
2022-07-31T21:24:51.439Z,4.22
2022-07-31T21:29:56.785Z,3.75
2022-07-31T21:34:59.051Z,3.80
2022-07-31T21:40:00.810Z,4.10
2022-07-31T21:45:02.823Z,4.18
2022-07-31T21:50:09.690Z,4.00
2022-07-31T21:55:11.309Z,3.97
2022-07-31T22:00:14.052Z,3.72
2022-07-31T22:05:34.533Z,4.07
2022-07-31T22:10:36.082Z,4.25
2022-07-31T22:15:50.372Z,4.95
2022-07-31T22:21:03.077Z,4.85
2022-07-31T22:26:04.828Z,4.93
2022-07-31T22:31:06.675Z,4.78
2022-07-31T22:36:08.668Z,5.20
2022-07-31T22:41:12.469Z,5.10
2022-07-31T22:46:14.557Z,5.65
2022-07-31T22:51:16.158Z,6.10
2022-07-31T22:56:18.188Z,5.53
2022-07-31T23:01:19.791Z,6.20
2022-07-31T23:06:30.698Z,6.03
2022-07-31T23:11:34.043Z,6.95
2022-07-31T23:16:35.730Z,6.82
2022-07-31T23:21:37.712Z,5.88
2022-07-31T23:26:39.541Z,6.60
2022-07-31T23:31:41.093Z,6.75
2022-07-31T23:36:44.145Z,6.50
2022-07-31T23:42:04.365Z,6.30
2022-07-31T23:47:06.291Z,6.03
2022-07-31T23:52:08.242Z,5.07
2022-07-31T23:57:09.989Z,4.07
